YXJ weather

Fort St John Airport
Fort St.John, British Columbia, Canada

Public forecast

Using degrees Celsius for public forecast. Weather courtesy of forecast.io.

METAR (pilot weather report)

Retrieved 2019/08/21 00:00 UTC (48 minutes ago):

CYXJ 210000Z 05004KT 010V090 60SM BKN180 BKN240 19/14 A2990 RMK AC7CI1 CI TR SLP137 DENSITY ALT 3300FT

TAF (pilot weather forecast)

Retrieved 2019/08/21 01:42 UTC (0 seconds ago):

TAF CYXJ 210038Z 2101/2113 08008KT P6SM SCT020 BKN150 BECMG 2110/2112 16008KT RMK NXT FCST BY 210700Z